Time;durP1;ratioP1;P1;durP2;ratioP2;P2;SDS_P1;SDS_P2;PMS_P1;PMS_P2;Temp;Humidity;BMP_temperature;BMP_pressure;BME280_temperature;BME280_humidity;BME280_pressure;Samples;Min_cycle;Max_cycle;Signal;HPM_P1;HPM_P2
2021/11/21 00:01:41;;;;;;;1.30;1.20;;;;;;;10.39;72.73;100664.50;6227948;23;20478;-76
2021/11/21 00:04:07;;;;;;;0.82;0.70;;;;;;;10.30;72.67;100651.25;6227152;23;20016;-75
2021/11/21 00:06:35;;;;;;;1.42;0.73;;;;;;;10.31;72.30;100652.91;6221711;23;20008;-74
2021/11/21 00:09:03;;;;;;;1.20;0.80;;;;;;;10.37;72.39;100661.22;6196663;23;20043;-76
2021/11/21 00:11:28;;;;;;;3.20;0.95;;;;;;;10.42;72.75;100662.06;6225803;23;20074;-76
2021/11/21 00:13:54;;;;;;;3.97;1.90;;;;;;;10.39;72.90;100656.28;6224814;23;20403;-76
2021/11/21 00:16:20;;;;;;;1.58;1.13;;;;;;;10.40;72.65;100657.97;6226178;23;20005;-76
2021/11/21 00:18:47;;;;;;;0.85;0.82;;;;;;;10.41;72.50;100660.44;6198909;23;20008;-77
2021/11/21 00:21:12;;;;;;;3.00;0.70;;;;;;;10.44;72.99;100659.91;6226397;23;20048;-77
2021/11/21 00:23:38;;;;;;;0.98;0.98;;;;;;;10.45;72.72;100658.00;6225926;23;20024;-77
2021/11/21 00:26:04;;;;;;;1.13;1.02;;;;;;;10.51;72.69;100665.16;6224697;23;20038;-74
2021/11/21 00:28:29;;;;;;;1.27;0.95;;;;;;;10.53;72.95;100663.00;6221226;23;20034;-73
2021/11/21 00:30:55;;;;;;;3.15;1.05;;;;;;;10.56;72.23;100665.22;6218205;23;20450;-73
2021/11/21 00:33:20;;;;;;;0.90;0.82;;;;;;;10.56;72.64;100658.91;6213957;23;20004;-75
2021/11/21 00:35:46;;;;;;;0.65;0.65;;;;;;;10.55;72.77;100663.53;6221061;23;20074;-76
2021/11/21 00:38:12;;;;;;;0.63;0.57;;;;;;;10.63;72.34;100665.81;6224706;23;20004;-75
2021/11/21 00:40:38;;;;;;;0.60;0.50;;;;;;;10.67;72.34;100665.28;6224029;23;20001;-74
2021/11/21 00:43:03;;;;;;;1.58;0.82;;;;;;;10.63;72.88;100656.78;6219526;23;20007;-73
2021/11/21 00:45:30;;;;;;;2.33;1.05;;;;;;;10.70;72.15;100667.50;6220702;23;20040;-73
2021/11/21 00:47:56;;;;;;;0.70;0.70;;;;;;;10.69;71.96;100655.75;6222603;23;20005;-75
2021/11/21 00:50:28;;;;;;;1.13;0.82;;;;;;;10.73;72.65;100664.25;6216844;23;20000;-73
2021/11/21 00:53:03;;;;;;;2.97;0.65;;;;;;;10.78;72.16;100658.81;6219499;23;20370;-72
2021/11/21 00:55:37;;;;;;;0.52;0.52;;;;;;;10.81;72.69;100674.72;6216412;23;20011;-73
2021/11/21 00:58:09;;;;;;;1.60;0.90;;;;;;;10.86;72.41;100666.53;6219819;23;20004;-75
2021/11/21 01:00:38;;;;;;;1.98;0.77;;;;;;;10.90;72.13;100659.44;6218287;23;20019;-74
2021/11/21 01:03:06;;;;;;;0.90;0.90;;;;;;;10.93;72.10;100664.41;6218837;23;20005;-74
2021/11/21 01:05:31;;;;;;;1.15;1.00;;;;;;;10.95;72.50;100664.13;6218087;23;20009;-73
2021/11/21 01:07:57;;;;;;;1.20;0.82;;;;;;;11.00;71.86;100665.00;6221868;23;20094;-75
2021/11/21 01:10:23;;;;;;;3.50;0.68;;;;;;;11.02;71.87;100674.88;6225261;23;20385;-76
2021/11/21 01:12:53;;;;;;;0.75;0.70;;;;;;;11.03;71.90;100668.31;6225038;23;20087;-78
2021/11/21 01:15:23;;;;;;;2.28;1.05;;;;;;;11.00;72.28;100670.47;6223918;23;20072;-77
2021/11/21 01:17:50;;;;;;;0.60;0.60;;;;;;;11.00;72.41;100677.88;6215759;23;20005;-69
2021/11/21 01:20:16;;;;;;;0.75;0.75;;;;;;;10.99;72.47;100679.78;6211221;23;20032;-71
2021/11/21 01:22:42;;;;;;;0.82;0.80;;;;;;;10.97;71.85;100681.94;6208048;23;20041;-69
2021/11/21 01:25:10;;;;;;;0.60;0.60;;;;;;;10.92;71.73;100657.28;6211682;23;20059;-72
2021/11/21 01:27:36;;;;;;;0.40;0.40;;;;;;;10.88;72.50;100669.84;6214451;23;20619;-70
2021/11/21 01:30:06;;;;;;;3.70;1.05;;;;;;;10.84;72.22;100665.97;6218173;23;20018;-70
2021/11/21 01:32:32;;;;;;;3.92;0.60;;;;;;;10.80;72.22;100664.84;6221100;23;20035;-69
2021/11/21 01:34:58;;;;;;;0.85;0.52;;;;;;;10.78;71.91;100656.09;6215777;23;20059;-69
2021/11/21 01:37:23;;;;;;;0.75;0.20;;;;;;;10.75;71.69;100651.97;6189795;23;20013;-72
2021/11/21 01:39:49;;;;;;;1.60;0.50;;;;;;;10.75;71.32;100656.63;6161106;23;20031;-69
2021/11/21 01:42:15;;;;;;;0.40;0.30;;;;;;;10.62;71.67;100636.81;6211718;23;20035;-70
2021/11/21 01:44:48;;;;;;;0.15;0.15;;;;;;;10.60;71.53;100639.00;6218677;23;20008;-70
2021/11/21 01:47:14;;;;;;;0.77;0.10;;;;;;;10.67;71.39;100654.34;6215849;23;20008;-69
2021/11/21 01:49:39;;;;;;;0.22;0.15;;;;;;;10.64;71.72;100651.06;6216233;23;20354;-69
2021/11/21 01:52:05;;;;;;;0.25;0.20;;;;;;;10.63;71.66;100654.88;6210633;23;20442;-69
2021/11/21 01:54:31;;;;;;;0.38;0.28;;;;;;;10.64;71.11;100663.91;6214047;23;20067;-70
2021/11/21 01:56:56;;;;;;;0.47;0.20;;;;;;;10.60;71.40;100649.94;6209346;23;20019;-69
2021/11/21 01:59:22;;;;;;;0.25;0.10;;;;;;;10.67;71.29;100657.09;6210852;23;20023;-69
2021/11/21 02:01:47;;;;;;;0.20;0.20;;;;;;;10.66;71.33;100642.59;6210934;23;20339;-69
2021/11/21 02:04:13;;;;;;;0.50;0.20;;;;;;;10.64;71.34;100642.88;6211552;23;20447;-70
2021/11/21 02:06:38;;;;;;;2.15;0.20;;;;;;;10.65;71.38;100641.75;6207873;23;20099;-69
2021/11/21 02:09:05;;;;;;;0.55;0.20;;;;;;;10.62;71.06;100644.19;6158821;23;20062;-77
2021/11/21 02:11:31;;;;;;;0.80;0.20;;;;;;;10.65;71.29;100658.16;6197255;23;20009;-77
2021/11/21 02:13:57;;;;;;;1.65;0.40;;;;;;;10.62;71.37;100649.66;6220368;23;20009;-76
2021/11/21 02:16:25;;;;;;;0.80;0.40;;;;;;;10.62;70.83;100647.75;6225694;23;20043;-75
2021/11/21 02:18:51;;;;;;;1.58;0.45;;;;;;;10.61;71.31;100648.00;6216975;23;20024;-75
2021/11/21 02:21:18;;;;;;;0.77;0.32;;;;;;;10.58;71.23;100646.63;6219239;23;20023;-74
2021/11/21 02:23:47;;;;;;;0.60;0.38;;;;;;;10.58;71.21;100632.94;6213844;23;20446;-72
2021/11/21 02:26:15;;;;;;;0.65;0.35;;;;;;;10.55;71.09;100638.94;6212439;23;20427;-74
2021/11/21 02:28:41;;;;;;;1.33;0.50;;;;;;;10.53;71.28;100638.38;6205997;23;20327;-72
2021/11/21 02:31:08;;;;;;;3.92;0.50;;;;;;;10.49;71.17;100626.31;6213087;23;20015;-73
2021/11/21 02:33:34;;;;;;;0.20;0.20;;;;;;;10.50;71.26;100630.72;6208309;23;20008;-74
2021/11/21 02:36:02;;;;;;;0.20;0.20;;;;;;;10.51;71.12;100635.06;6207987;23;20008;-73
2021/11/21 02:38:29;;;;;;;0.40;0.30;;;;;;;10.47;71.57;100623.03;6203021;23;20032;-71
2021/11/21 02:40:57;;;;;;;0.38;0.20;;;;;;;10.51;71.17;100632.34;6208677;23;20013;-72
2021/11/21 02:43:23;;;;;;;0.20;0.20;;;;;;;10.50;70.91;100633.44;6210376;23;20036;-72
2021/11/21 02:45:50;;;;;;;1.77;0.38;;;;;;;10.51;71.42;100629.59;6207853;23;20008;-73
2021/11/21 02:48:18;;;;;;;0.43;0.20;;;;;;;10.53;71.73;100630.19;6212219;23;20427;-72
2021/11/21 02:50:44;;;;;;;0.50;0.30;;;;;;;10.47;71.36;100623.03;6215605;23;20009;-72
2021/11/21 02:53:10;;;;;;;0.43;0.30;;;;;;;10.53;71.25;100621.97;6192041;23;20390;-71
2021/11/21 02:55:36;;;;;;;2.08;0.50;;;;;;;10.53;71.28;100630.19;6218237;23;20004;-70
2021/11/21 02:58:03;;;;;;;1.65;0.43;;;;;;;10.52;71.10;100620.31;6217167;23;20047;-71
2021/11/21 03:00:29;;;;;;;0.50;0.20;;;;;;;10.52;71.71;100619.50;6215915;23;20020;-70
2021/11/21 03:02:54;;;;;;;2.13;0.40;;;;;;;10.50;71.52;100621.66;6220151;23;20011;-71
2021/11/21 03:05:20;;;;;;;0.30;0.20;;;;;;;10.52;71.64;100622.25;6164391;23;20019;-71
2021/11/21 03:07:48;;;;;;;0.38;0.20;;;;;;;10.52;71.29;100619.50;6217240;23;20039;-70
2021/11/21 03:10:18;;;;;;;1.20;0.68;;;;;;;10.52;71.03;100624.97;6215095;23;20008;-71
2021/11/21 03:12:45;;;;;;;0.75;0.30;;;;;;;10.46;71.14;100618.63;6216757;23;20032;-72
2021/11/21 03:15:11;;;;;;;1.17;0.65;;;;;;;10.44;71.12;100629.84;6223002;23;20008;-72
2021/11/21 03:17:39;;;;;;;0.98;0.60;;;;;;;10.40;71.33;100631.44;6218742;23;20019;-71
2021/11/21 03:20:06;;;;;;;3.78;0.98;;;;;;;10.40;70.89;100645.09;6220450;23;20019;-73
2021/11/21 03:22:31;;;;;;;1.25;0.60;;;;;;;10.37;71.60;100639.34;6220922;23;20320;-71
2021/11/21 03:24:57;;;;;;;3.20;0.50;;;;;;;10.36;71.07;100641.22;6213844;23;20062;-73
2021/11/21 03:27:23;;;;;;;0.50;0.50;;;;;;;10.34;71.14;100640.69;6209321;23;20436;-73
2021/11/21 03:29:52;;;;;;;6.75;0.77;;;;;;;10.31;71.08;100647.44;6212629;23;20328;-72
2021/11/21 03:32:18;;;;;;;4.85;0.60;;;;;;;10.23;71.23;100639.72;6209890;23;20135;-72
2021/11/21 03:34:51;;;;;;;1.15;0.60;;;;;;;10.28;71.37;100658.91;6184826;23;20077;-72
2021/11/21 03:37:16;;;;;;;1.95;0.70;;;;;;;10.17;71.36;100646.22;6216096;23;20012;-71
2021/11/21 03:39:42;;;;;;;3.42;0.68;;;;;;;10.18;70.97;100650.59;6216359;23;20005;-71
2021/11/21 03:42:09;;;;;;;1.02;0.50;;;;;;;10.12;71.50;100654.38;6213319;23;20013;-72
2021/11/21 03:44:35;;;;;;;0.95;0.38;;;;;;;10.06;71.63;100645.28;6212371;23;20007;-71
2021/11/21 03:47:00;;;;;;;4.68;0.82;;;;;;;10.02;71.04;100637.88;6209991;23;20103;-72
2021/11/21 03:49:26;;;;;;;1.40;0.50;;;;;;;9.99;70.94;100643.81;6215022;23;20020;-71
2021/11/21 03:51:52;;;;;;;0.60;0.35;;;;;;;9.95;71.15;100644.34;6212363;23;20048;-73
2021/11/21 03:54:17;;;;;;;0.60;0.40;;;;;;;9.89;71.24;100634.44;6217108;23;20328;-72
2021/11/21 03:56:43;;;;;;;0.70;0.22;;;;;;;9.85;70.80;100640.69;6205434;23;20036;-73
2021/11/21 03:59:09;;;;;;;0.98;0.47;;;;;;;9.73;70.97;100636.19;6209352;23;20008;-73
2021/11/21 04:01:35;;;;;;;0.30;0.20;;;;;;;9.67;71.11;100637.19;6212824;23;20011;-72
2021/11/21 04:04:05;;;;;;;0.40;0.30;;;;;;;9.57;70.70;100643.34;6214578;23;20062;-71
2021/11/21 04:06:31;;;;;;;0.50;0.10;;;;;;;9.47;70.80;100637.78;6219614;23;20518;-72
2021/11/21 04:08:57;;;;;;;1.30;0.45;;;;;;;9.37;70.52;100637.63;6215583;23;20012;-69
2021/11/21 04:11:40;;;;;;;0.82;0.40;;;;;;;9.26;71.04;100636.69;6216896;23;20079;-71
2021/11/21 04:14:06;;;;;;;0.90;0.50;;;;;;;9.09;70.87;100620.34;6214714;23;20050;-72
2021/11/21 04:16:44;;;;;;;;;;;;;;;;;;;;;
2021/11/21 04:19:10;;;;;;;1.75;0.60;;;;;;;8.91;70.40;100640.56;6217407;23;20057;-72
2021/11/21 04:21:36;;;;;;;0.88;0.63;;;;;;;8.78;70.80;100647.16;6219740;23;20068;-72
2021/11/21 04:24:05;;;;;;;0.63;0.15;;;;;;;8.65;70.78;100640.13;6213284;23;20304;-69
2021/11/21 04:26:32;;;;;;;1.13;0.22;;;;;;;8.57;70.51;100643.28;6217257;23;20091;-70
2021/11/21 04:28:57;;;;;;;2.72;0.30;;;;;;;8.45;71.25;100646.06;6221002;23;20012;-73
2021/11/21 04:31:22;;;;;;;1.08;0.40;;;;;;;8.35;71.23;100643.13;6220151;23;20150;-72
2021/11/21 04:33:48;;;;;;;2.15;0.50;;;;;;;8.27;71.07;100651.72;6218867;23;20008;-72
2021/11/21 04:36:14;;;;;;;1.13;0.50;;;;;;;8.17;71.16;100636.84;6219701;23;20014;-73
2021/11/21 04:38:41;;;;;;;2.72;0.50;;;;;;;8.06;71.37;100640.47;6221701;23;20019;-72
2021/11/21 04:41:06;;;;;;;2.30;0.40;;;;;;;8.01;71.50;100643.09;6218351;23;20012;-73
2021/11/21 04:43:32;;;;;;;0.70;0.35;;;;;;;7.92;72.18;100637.19;6220830;23;20032;-72
2021/11/21 04:45:58;;;;;;;0.85;0.40;;;;;;;7.79;71.71;100627.41;6215522;23;20005;-72
2021/11/21 04:48:24;;;;;;;2.35;0.55;;;;;;;7.72;72.47;100623.19;6220502;23;20000;-73
2021/11/21 04:50:52;;;;;;;4.22;0.68;;;;;;;7.67;72.46;100634.81;6223071;23;20058;-73
2021/11/21 04:53:18;;;;;;;0.30;0.30;;;;;;;7.67;72.03;100632.09;6223005;23;20008;-71
2021/11/21 04:55:44;;;;;;;6.28;0.70;;;;;;;7.62;72.21;100634.69;6221159;23;20008;-72
2021/11/21 04:58:10;;;;;;;0.60;0.20;;;;;;;7.58;72.55;100633.50;6217536;23;20055;-71
2021/11/21 05:00:36;;;;;;;3.38;0.60;;;;;;;7.54;71.79;100632.38;6220165;23;20008;-72
2021/11/21 05:03:01;;;;;;;0.38;0.25;;;;;;;7.48;72.84;100623.28;6217571;23;20008;-75
2021/11/21 05:05:27;;;;;;;0.88;0.50;;;;;;;7.43;72.30;100623.16;6218496;23;20008;-72
2021/11/21 05:07:53;;;;;;;0.77;0.30;;;;;;;7.39;72.17;100619.25;6215901;23;20004;-73
2021/11/21 05:10:20;;;;;;;6.40;0.50;;;;;;;7.33;72.69;100621.06;6222136;23;20011;-72
2021/11/21 05:12:46;;;;;;;2.15;0.45;;;;;;;7.32;72.54;100611.25;6221178;23;20064;-72
2021/11/21 05:15:14;;;;;;;1.25;0.57;;;;;;;7.26;72.77;100609.47;6216051;23;20090;-70
2021/11/21 05:17:40;;;;;;;3.42;0.90;;;;;;;7.22;72.58;100611.03;6193105;23;20441;-71
2021/11/21 05:20:06;;;;;;;2.22;0.40;;;;;;;7.19;73.44;100609.59;6221846;23;20229;-72
2021/11/21 05:22:32;;;;;;;2.42;0.40;;;;;;;7.14;73.25;100602.16;6216850;23;20016;-72
2021/11/21 05:24:58;;;;;;;3.40;0.28;;;;;;;7.12;72.82;100614.34;6219146;23;20066;-72
2021/11/21 05:27:24;;;;;;;5.32;0.60;;;;;;;7.12;73.44;100609.72;6218585;23;20009;-72
2021/11/21 05:29:52;;;;;;;0.73;0.50;;;;;;;7.12;72.71;100604.28;6193185;23;20019;-71
2021/11/21 05:32:19;;;;;;;1.30;0.30;;;;;;;7.12;73.00;100615.16;6216525;23;20001;-71
2021/11/21 05:34:45;;;;;;;2.42;0.65;;;;;;;7.08;73.11;100613.16;6215003;23;20005;-72
2021/11/21 05:37:12;;;;;;;3.45;0.30;;;;;;;7.03;72.73;100594.84;6219509;23;20062;-72
2021/11/21 05:39:37;;;;;;;3.78;0.52;;;;;;;7.01;73.27;100598.84;6215140;23;20016;-73
2021/11/21 05:42:03;;;;;;;1.17;0.32;;;;;;;6.94;73.36;100597.09;6220213;23;20035;-72
2021/11/21 05:44:28;;;;;;;3.67;0.20;;;;;;;6.95;73.58;100603.34;6220296;23;20028;-72
2021/11/21 05:46:54;;;;;;;1.70;0.68;;;;;;;6.92;73.36;100603.81;6217773;23;20580;-71
2021/11/21 05:49:19;;;;;;;1.48;0.40;;;;;;;6.90;73.00;100608.69;6217072;23;20011;-73
2021/11/21 05:51:45;;;;;;;2.05;0.47;;;;;;;6.84;72.68;100606.91;6209781;23;20062;-73
2021/11/21 05:54:10;;;;;;;0.50;0.50;;;;;;;6.79;73.18;100613.03;6206674;23;20004;-73
2021/11/21 05:56:36;;;;;;;2.00;0.50;;;;;;;6.75;72.99;100612.69;6211534;23;20008;-72
2021/11/21 05:59:01;;;;;;;11.52;1.10;;;;;;;6.72;73.59;100610.47;6213812;23;20008;-73
2021/11/21 06:01:37;;;;;;;;;;;;;;;;;;;;;
2021/11/21 06:04:04;;;;;;;6.63;1.10;;;;;;;6.66;73.71;100616.00;6214824;23;20088;-71
2021/11/21 06:06:29;;;;;;;1.83;0.22;;;;;;;6.64;73.74;100616.22;6211624;23;20013;-72
2021/11/21 06:08:55;;;;;;;0.25;0.20;;;;;;;6.63;74.19;100620.03;6215511;23;20013;-71
2021/11/21 06:11:23;;;;;;;0.50;0.10;;;;;;;6.61;74.17;100614.00;6217130;23;20000;-75
2021/11/21 06:13:54;;;;;;;0.35;0.15;;;;;;;6.55;73.54;100614.94;6191749;23;20008;-74
2021/11/21 06:16:21;;;;;;;1.60;1.35;;;;;;;6.50;73.25;100610.22;6220662;23;20009;-74
2021/11/21 06:18:47;;;;;;;0.90;0.25;;;;;;;6.42;73.28;100600.50;6197057;23;20012;-74
2021/11/21 06:21:13;;;;;;;0.93;0.32;;;;;;;6.54;73.61;100618.69;6219524;23;20017;-73
2021/11/21 06:23:39;;;;;;;0.43;0.22;;;;;;;6.52;73.13;100623.56;6219051;23;20009;-71
2021/11/21 06:26:05;;;;;;;3.00;0.57;;;;;;;6.44;73.90;100620.13;6220887;23;20012;-71
2021/11/21 06:28:32;;;;;;;2.95;0.60;;;;;;;6.41;74.14;100619.75;6219666;23;20000;-72
2021/11/21 06:30:57;;;;;;;1.45;0.17;;;;;;;6.40;74.15;100618.94;6221070;23;20008;-72
2021/11/21 06:33:23;;;;;;;0.73;0.30;;;;;;;6.40;74.05;100627.06;6169873;23;20004;-71
2021/11/21 06:35:50;;;;;;;1.60;0.30;;;;;;;6.39;74.40;100622.69;6216087;23;20012;-73
2021/11/21 06:38:17;;;;;;;0.22;0.10;;;;;;;6.38;73.39;100626.50;6221565;23;20012;-73
2021/11/21 06:40:43;;;;;;;2.05;0.32;;;;;;;6.34;73.84;100621.72;6217034;23;20489;-71
2021/11/21 06:43:08;;;;;;;2.75;0.38;;;;;;;6.29;73.96;100622.44;6194694;23;20012;-70
2021/11/21 06:45:34;;;;;;;1.50;0.20;;;;;;;6.26;73.90;100618.31;6216145;23;20383;-72
2021/11/21 06:47:59;;;;;;;0.95;0.30;;;;;;;6.22;73.75;100608.13;6215087;23;20011;-71
2021/11/21 06:50:26;;;;;;;0.93;0.30;;;;;;;6.13;73.86;100604.09;6194357;23;20004;-72
2021/11/21 06:52:52;;;;;;;1.50;0.47;;;;;;;6.07;74.05;100612.09;6214387;23;20039;-71
2021/11/21 06:55:18;;;;;;;3.25;0.47;;;;;;;6.01;73.93;100610.31;6215593;23;20028;-71
2021/11/21 06:57:44;;;;;;;2.05;0.43;;;;;;;5.99;73.84;100607.03;6213536;23;20087;-71
2021/11/21 07:00:15;;;;;;;1.25;0.25;;;;;;;6.00;74.41;100624.13;6218490;23;20420;-71
2021/11/21 07:02:42;;;;;;;1.75;0.43;;;;;;;5.97;74.38;100621.84;6216064;23;20058;-72
2021/11/21 07:05:08;;;;;;;2.00;0.40;;;;;;;5.92;74.38;100626.06;6214788;23;20079;-73
2021/11/21 07:07:35;;;;;;;0.52;0.13;;;;;;;5.91;73.93;100631.72;6219537;23;20360;-73
2021/11/21 07:10:01;;;;;;;5.85;1.17;;;;;;;5.87;74.45;100614.25;6220886;23;20074;-74
2021/11/21 07:12:26;;;;;;;0.85;0.10;;;;;;;5.75;74.63;100612.34;6220502;23;20012;-72
2021/11/21 07:14:54;;;;;;;1.15;0.40;;;;;;;5.77;74.17;100614.81;6219790;23;20443;-72
2021/11/21 07:17:19;;;;;;;2.15;0.15;;;;;;;5.69;74.23;100596.94;6194845;23;20039;-73
2021/11/21 07:19:45;;;;;;;0.73;0.20;;;;;;;5.73;74.10;100617.16;6220789;23;20056;-73
2021/11/21 07:22:32;;;;;;;2.30;0.22;;;;;;;5.67;73.96;100620.78;6222429;23;20008;-72
2021/11/21 07:24:58;;;;;;;1.52;0.30;;;;;;;5.65;74.86;100620.19;6220511;23;20004;-74
2021/11/21 07:27:23;;;;;;;0.20;0.17;;;;;;;5.53;75.01;100598.41;6219827;23;20493;-73
2021/11/21 07:29:49;;;;;;;1.50;0.40;;;;;;;5.52;75.03;100617.63;6223028;23;20012;-73
2021/11/21 07:32:15;;;;;;;1.70;0.40;;;;;;;5.52;74.44;100623.91;6194948;23;20634;-74
2021/11/21 07:34:41;;;;;;;4.47;0.35;;;;;;;5.49;74.94;100623.50;6224405;23;20490;-75
2021/11/21 07:37:07;;;;;;;1.70;0.50;;;;;;;5.49;74.53;100627.06;6224792;23;20008;-75
2021/11/21 07:39:32;;;;;;;0.40;0.35;;;;;;;5.49;75.21;100632.50;6222695;23;20056;-75
2021/11/21 07:41:58;;;;;;;0.35;0.20;;;;;;;5.45;74.49;100633.16;6224111;23;20068;-75
2021/11/21 07:44:24;;;;;;;1.17;0.28;;;;;;;5.47;74.61;100631.88;6223671;23;20064;-73
2021/11/21 07:46:49;;;;;;;1.42;0.60;;;;;;;5.48;74.92;100638.16;6222795;23;20012;-72
2021/11/21 07:49:15;;;;;;;2.00;0.50;;;;;;;5.47;75.39;100652.75;6224947;23;20013;-73
2021/11/21 07:51:40;;;;;;;1.02;0.20;;;;;;;5.42;74.87;100648.84;6223845;23;20012;-73
2021/11/21 07:54:06;;;;;;;0.55;0.13;;;;;;;5.44;74.48;100664.06;6223514;23;20008;-73
2021/11/21 07:56:32;;;;;;;2.22;0.20;;;;;;;5.36;75.18;100652.47;6221678;23;20009;-72
2021/11/21 07:58:57;;;;;;;2.30;0.55;;;;;;;5.40;75.20;100659.09;6222174;23;20009;-73
2021/11/21 08:01:45;;;;;;;2.42;0.30;;;;;;;5.45;75.03;100668.41;6221613;23;20008;-73
2021/11/21 08:04:11;;;;;;;1.13;0.25;;;;;;;5.41;75.31;100668.03;6221924;23;20035;-73
2021/11/21 08:06:36;;;;;;;0.40;0.20;;;;;;;5.44;74.67;100670.31;6224513;23;20518;-74
2021/11/21 08:09:02;;;;;;;1.08;0.40;;;;;;;5.45;74.99;100673.84;6222726;23;20005;-73
2021/11/21 08:11:33;;;;;;;0.60;0.22;;;;;;;5.49;75.55;100677.75;6197047;23;20035;-72
2021/11/21 08:13:58;;;;;;;1.30;0.20;;;;;;;5.50;75.48;100679.41;6219821;23;20004;-73
2021/11/21 08:16:24;;;;;;;2.75;0.43;;;;;;;5.60;75.78;100691.41;6223201;23;20009;-73
2021/11/21 08:18:49;;;;;;;1.75;0.52;;;;;;;5.62;75.80;100685.75;6223696;23;20400;-74
2021/11/21 08:21:15;;;;;;;2.38;0.35;;;;;;;5.68;75.37;100687.56;6220698;23;20020;-74
2021/11/21 08:23:40;;;;;;;0.45;0.40;;;;;;;5.73;75.44;100690.41;6196957;23;20000;-74
2021/11/21 08:26:12;;;;;;;2.35;0.40;;;;;;;5.74;74.88;100689.38;6222333;23;20035;-74
2021/11/21 08:28:39;;;;;;;1.00;0.68;;;;;;;5.76;74.72;100689.94;6223108;23;20031;-74
2021/11/21 08:31:06;;;;;;;0.85;0.40;;;;;;;5.84;74.97;100696.13;6221945;23;20005;-73
2021/11/21 08:33:32;;;;;;;0.77;0.35;;;;;;;5.84;74.71;100690.69;6221302;23;20004;-74
2021/11/21 08:36:19;;;;;;;2.38;0.63;;;;;;;5.89;75.23;100682.72;6217593;23;20008;-73
2021/11/21 08:38:44;;;;;;;1.13;0.35;;;;;;;5.75;74.57;100668.47;6218083;23;20004;-70
2021/11/21 08:41:10;;;;;;;2.17;0.40;;;;;;;5.97;74.43;100685.13;6219509;23;20438;-72
2021/11/21 08:43:35;;;;;;;2.25;0.25;;;;;;;6.01;74.16;100690.94;6222330;23;20016;-72
2021/11/21 08:46:01;;;;;;;0.70;0.57;;;;;;;6.04;75.07;100688.59;6222847;23;20009;-72
2021/11/21 08:48:26;;;;;;;1.17;0.47;;;;;;;6.13;74.23;100693.72;6196833;23;20012;-71
2021/11/21 08:50:53;;;;;;;4.00;0.32;;;;;;;6.17;74.55;100694.91;6195133;23;20028;-74
2021/11/21 08:53:19;;;;;;;2.15;0.47;;;;;;;6.23;74.39;100693.97;6222188;23;20001;-72
2021/11/21 08:55:45;;;;;;;0.65;0.40;;;;;;;6.30;74.21;100689.28;6222775;23;20078;-74
2021/11/21 08:58:10;;;;;;;1.85;0.40;;;;;;;6.36;74.37;100693.78;6220977;23;20005;-71
2021/11/21 09:00:36;;;;;;;1.27;0.32;;;;;;;6.49;74.53;100710.97;6196788;23;20489;-73
2021/11/21 09:03:02;;;;;;;3.80;0.57;;;;;;;6.58;73.96;100696.78;6221954;23;20036;-73
2021/11/21 09:05:28;;;;;;;2.90;0.95;;;;;;;7.04;75.13;100698.97;6221655;23;20067;-75
2021/11/21 09:07:56;;;;;;;1.10;0.25;;;;;;;7.96;74.48;100695.56;6222453;23;20009;-76
2021/11/21 09:10:24;;;;;;;0.90;0.57;;;;;;;9.01;71.97;100706.16;6176626;23;20005;-75
2021/11/21 09:12:50;;;;;;;3.58;0.30;;;;;;;10.03;69.18;100705.06;6221868;23;20000;-74
2021/11/21 09:15:21;;;;;;;1.13;0.20;;;;;;;10.99;66.52;100715.34;6220490;23;20009;-75
2021/11/21 09:17:50;;;;;;;1.00;0.28;;;;;;;11.92;64.40;100724.13;6223889;23;20079;-75
2021/11/21 09:20:28;;;;;;;2.83;0.40;;;;;;;12.63;61.45;100727.34;6223733;23;20028;-75
2021/11/21 09:22:58;;;;;;;0.57;0.25;;;;;;;13.16;60.25;100716.13;6224001;23;20016;-74
2021/11/21 09:25:25;;;;;;;0.47;0.20;;;;;;;13.80;58.84;100722.88;6222576;23;20005;-75
2021/11/21 09:27:51;;;;;;;1.75;0.40;;;;;;;14.55;57.41;100743.13;6200142;23;20035;-75
2021/11/21 09:30:16;;;;;;;1.55;0.38;;;;;;;15.01;54.74;100742.84;6197000;23;20088;-74
2021/11/21 09:32:42;;;;;;;1.30;0.43;;;;;;;15.39;52.96;100740.28;6223931;23;20109;-73
2021/11/21 09:35:09;;;;;;;0.30;0.25;;;;;;;15.77;51.62;100745.94;6222934;23;20008;-74
2021/11/21 09:37:38;;;;;;;1.48;0.50;;;;;;;16.14;50.46;100749.13;6223663;23;20031;-75
2021/11/21 09:40:10;;;;;;;2.72;2.47;;;;;;;16.28;47.76;100738.16;6228103;23;20011;-81
2021/11/21 09:42:36;;;;;;;0.52;0.30;;;;;;;16.66;47.95;100749.22;6223174;23;20079;-73
2021/11/21 09:45:12;;;;;;;4.75;0.50;;;;;;;16.95;46.08;100746.28;6223836;23;20007;-76
2021/11/21 09:47:38;;;;;;;1.45;0.35;;;;;;;17.38;46.92;100753.59;6224540;23;19996;-71
2021/11/21 09:50:07;;;;;;;1.23;0.25;;;;;;;17.89;44.95;100751.81;6223504;23;20007;-75
2021/11/21 09:52:59;;;;;;;0.70;0.50;;;;;;;18.45;44.89;100770.00;6220303;23;20005;-72
2021/11/21 09:55:26;;;;;;;1.23;0.50;;;;;;;18.78;42.68;100778.13;6218647;23;20016;-74
2021/11/21 09:57:53;;;;;;;1.05;0.17;;;;;;;18.87;40.88;100758.84;6220512;23;20009;-74
2021/11/21 10:00:30;;;;;;;0.82;0.32;;;;;;;19.35;42.41;100785.91;6224061;23;20320;-76
2021/11/21 10:03:08;;;;;;;0.20;0.20;;;;;;;19.89;40.77;100776.75;6225674;23;20454;-77
2021/11/21 10:05:46;;;;;;;0.57;0.17;;;;;;;20.40;41.07;100780.00;6226572;23;20001;-75
2021/11/21 10:08:17;;;;;;;2.30;0.35;;;;;;;20.71;39.10;100779.91;6224321;23;20004;-76
2021/11/21 10:10:43;;;;;;;5.75;0.77;;;;;;;21.10;38.79;100786.44;6222987;23;20005;-76
2021/11/21 10:13:51;;;;;;;0.40;0.20;;;;;;;21.70;38.59;100781.09;6226219;23;20321;-75
2021/11/21 10:16:21;;;;;;;0.60;0.20;;;;;;;21.79;36.44;100781.06;6165992;23;20013;-76
2021/11/21 10:18:50;;;;;;;1.63;0.43;;;;;;;22.01;35.24;100779.97;6224189;23;20016;-76
2021/11/21 10:21:24;;;;;;;1.77;0.30;;;;;;;22.06;35.17;100799.25;6221894;23;20023;-76
2021/11/21 10:24:20;;;;;;;0.38;0.20;;;;;;;22.45;34.13;100808.44;6219525;23;19997;-75
2021/11/21 10:27:01;;;;;;;;;;;;;;;22.98;32.20;100800.50;6224903;23;20001;-76
2021/11/21 10:29:33;;;;;;;2.13;0.45;;;;;;;23.03;33.62;100796.69;6224455;23;19907;-75
2021/11/21 10:31:59;;;;;;;0.50;0.32;;;;;;;23.34;32.60;100803.81;6223110;23;20000;-75
2021/11/21 10:34:24;;;;;;;0.77;0.50;;;;;;;23.56;31.91;100812.94;6222925;23;20360;-75
2021/11/21 10:36:50;;;;;;;0.35;0.32;;;;;;;23.78;30.63;100806.13;6200506;23;20013;-76
2021/11/21 10:39:20;;;;;;;1.02;0.30;;;;;;;23.83;30.53;100803.91;6225096;23;20005;-75
2021/11/21 10:41:50;;;;;;;1.63;0.40;;;;;;;23.97;29.99;100806.38;6199891;23;20446;-75
2021/11/21 10:44:20;;;;;;;0.77;0.30;;;;;;;24.11;30.38;100808.84;6221524;23;20001;-75
2021/11/21 10:46:53;;;;;;;0.90;0.30;;;;;;;24.42;29.06;100809.44;6221964;23;20013;-77
2021/11/21 10:49:30;;;;;;;1.00;0.32;;;;;;;24.75;29.13;100817.66;6224716;23;20035;-75
2021/11/21 10:52:12;;;;;;;0.38;0.20;;;;;;;24.79;27.92;100812.97;6223438;23;20001;-76
2021/11/21 10:54:40;;;;;;;0.35;0.30;;;;;;;24.75;28.33;100812.09;6220520;23;20009;-77
2021/11/21 10:57:12;;;;;;;4.47;0.30;;;;;;;25.05;28.79;100817.34;6225819;23;20008;-75
2021/11/21 10:59:47;;;;;;;0.35;0.20;;;;;;;25.19;26.62;100808.53;6223640;23;20008;-75
2021/11/21 11:02:45;;;;;;;0.55;0.10;;;;;;;25.41;26.65;100804.38;6222387;23;20027;-75
2021/11/21 11:05:12;;;;;;;0.75;0.10;;;;;;;25.53;26.87;100807.09;6172034;23;20038;-74
2021/11/21 11:07:52;;;;;;;0.28;0.20;;;;;;;25.99;27.17;100805.84;6222829;23;20004;-76
2021/11/21 11:10:24;;;;;;;0.52;0.20;;;;;;;26.18;26.48;100814.38;6220243;23;20023;-75
2021/11/21 11:13:03;;;;;;;0.60;0.30;;;;;;;26.39;26.15;100804.84;6224420;23;20000;-75
2021/11/21 11:15:31;;;;;;;0.75;0.35;;;;;;;26.27;25.81;100795.38;6220854;23;20012;-77
2021/11/21 11:17:57;;;;;;;0.30;0.10;;;;;;;25.96;25.23;100801.78;6224611;23;20079;-76
2021/11/21 11:20:25;;;;;;;0.30;0.20;;;;;;;25.09;25.28;100793.06;6220330;23;20013;-77
2021/11/21 11:22:51;;;;;;;0.50;0.30;;;;;;;23.99;26.34;100789.28;6199425;23;20032;-76
2021/11/21 11:25:23;;;;;;;1.25;0.22;;;;;;;23.32;26.51;100781.03;6196504;23;20376;-75
2021/11/21 11:27:51;;;;;;;0.68;0.30;;;;;;;22.31;27.18;100778.00;6224385;23;20008;-76
2021/11/21 11:30:28;;;;;;;2.20;0.35;;;;;;;22.24;28.71;100771.31;6224965;23;20015;-75
2021/11/21 11:33:04;;;;;;;1.58;0.20;;;;;;;22.56;27.67;100780.16;6225539;23;20012;-75
2021/11/21 11:35:32;;;;;;;0.77;0.20;;;;;;;22.64;28.81;100779.28;6222835;23;20008;-76